createdAt,value
2022-12-15T00:02:19.250Z,2.85
2022-12-15T00:05:04.939Z,2.80
2022-12-15T00:07:50.314Z,2.77
2022-12-15T00:10:35.457Z,2.76
2022-12-15T00:13:20.793Z,2.70
2022-12-15T00:16:06.555Z,2.71
2022-12-15T00:18:52.472Z,2.65
2022-12-15T00:21:37.779Z,2.44
2022-12-15T00:24:23.043Z,2.51
2022-12-15T00:27:08.446Z,1.74
2022-12-15T00:29:54.210Z,2.00
2022-12-15T00:32:41.145Z,2.13
2022-12-15T00:35:27.706Z,2.21
2022-12-15T00:38:12.913Z,2.37
2022-12-15T00:40:39.511Z,2.56
2022-12-15T00:43:06.183Z,2.24
2022-12-15T00:45:51.263Z,2.05
2022-12-15T00:48:17.823Z,2.48
2022-12-15T00:50:53.813Z,2.72
2022-12-15T00:53:41.061Z,2.31
2022-12-15T00:56:27.224Z,2.35
2022-12-15T00:59:13.511Z,1.81
2022-12-15T01:01:59.134Z,2.31
2022-12-15T01:04:46.687Z,2.55
2022-12-15T01:07:32.491Z,2.68
2022-12-15T01:10:17.726Z,2.75
2022-12-15T01:13:03.958Z,2.74
2022-12-15T01:15:49.375Z,2.78
2022-12-15T01:18:35.224Z,2.86
2022-12-15T01:21:04.904Z,2.54
2022-12-15T01:23:33.118Z,2.74
2022-12-15T01:26:00.773Z,2.81
2022-12-15T01:28:27.575Z,2.86
2022-12-15T01:30:54.498Z,2.50
2022-12-15T01:33:22.103Z,2.69
2022-12-15T01:36:02.022Z,2.81
2022-12-15T01:38:28.792Z,2.77
2022-12-15T01:40:59.516Z,2.39
2022-12-15T01:43:30.063Z,2.24
2022-12-15T01:46:01.687Z,1.64
2022-12-15T01:48:47.148Z,1.60
2022-12-15T01:51:16.039Z,2.10
2022-12-15T01:54:06.373Z,2.38
2022-12-15T01:56:38.600Z,2.69
2022-12-15T01:59:09.236Z,2.78
2022-12-15T02:01:36.366Z,2.89
2022-12-15T02:04:03.615Z,2.98
2022-12-15T02:06:30.555Z,2.98
2022-12-15T02:08:59.435Z,3.06
2022-12-15T02:11:50.190Z,3.05
2022-12-15T02:14:27.115Z,3.08
2022-12-15T02:16:56.346Z,2.79
2022-12-15T02:19:43.555Z,2.71
2022-12-15T02:22:19.734Z,2.69
2022-12-15T02:25:08.772Z,2.85
2022-12-15T02:28:04.944Z,2.62
2022-12-15T02:31:12.633Z,3.08
2022-12-15T02:34:05.458Z,3.17
2022-12-15T02:36:47.806Z,3.23
2022-12-15T02:39:15.244Z,3.17
2022-12-15T02:41:44.473Z,3.24
2022-12-15T02:44:13.132Z,3.31
2022-12-15T02:46:45.325Z,3.26
2022-12-15T02:49:40.118Z,3.23
2022-12-15T02:52:30.741Z,3.39
2022-12-15T02:55:31.236Z,3.37
2022-12-15T02:58:07.025Z,3.54
2022-12-15T03:00:40.989Z,3.60
2022-12-15T03:03:08.260Z,3.70
2022-12-15T03:05:35.438Z,3.46
2022-12-15T03:08:02.424Z,3.64
2022-12-15T03:10:29.058Z,3.66
2022-12-15T03:12:55.672Z,3.78
2022-12-15T03:15:22.257Z,3.86
2022-12-15T03:17:48.874Z,3.63
2022-12-15T03:20:15.922Z,3.76
2022-12-15T03:22:42.656Z,3.82
2022-12-15T03:25:09.609Z,3.82
2022-12-15T03:27:36.740Z,3.78
2022-12-15T03:30:05.523Z,3.77
2022-12-15T03:32:32.251Z,3.81
2022-12-15T03:34:58.793Z,3.71
2022-12-15T03:37:25.414Z,3.64
2022-12-15T03:39:52.369Z,3.63
2022-12-15T03:42:39.123Z,3.70
2022-12-15T03:45:06.402Z,3.75
2022-12-15T03:47:32.945Z,3.95
2022-12-15T03:49:59.588Z,3.67
2022-12-15T03:52:26.185Z,3.79
2022-12-15T03:54:52.737Z,4.01
2022-12-15T03:57:19.335Z,3.99
2022-12-15T03:59:45.918Z,3.97
2022-12-15T04:02:12.608Z,4.12
2022-12-15T04:04:40.638Z,4.15
2022-12-15T04:07:07.231Z,4.20
2022-12-15T04:09:34.169Z,4.10
2022-12-15T04:12:03.187Z,4.26
2022-12-15T04:14:30.196Z,4.33
2022-12-15T04:16:57.347Z,4.37
2022-12-15T04:19:42.820Z,4.40
2022-12-15T04:22:12.556Z,4.42
2022-12-15T04:25:00.561Z,4.41
2022-12-15T04:27:45.785Z,4.32
2022-12-15T04:30:31.311Z,4.20
2022-12-15T04:33:17.914Z,4.21
2022-12-15T04:36:03.299Z,4.15
2022-12-15T04:38:50.045Z,3.90
2022-12-15T04:41:37.753Z,3.80
2022-12-15T04:44:23.911Z,3.89
2022-12-15T04:47:09.137Z,3.59
2022-12-15T04:49:54.546Z,3.86
2022-12-15T04:52:39.958Z,3.77
2022-12-15T04:55:25.272Z,3.86
2022-12-15T04:58:10.577Z,3.88
2022-12-15T05:00:56.028Z,4.07
2022-12-15T05:03:41.428Z,4.23
2022-12-15T05:06:26.816Z,4.28
2022-12-15T05:09:12.190Z,4.30
2022-12-15T05:11:57.911Z,4.31
2022-12-15T05:14:43.170Z,4.13
2022-12-15T05:17:28.738Z,4.15
2022-12-15T05:20:14.021Z,3.87
2022-12-15T05:22:59.500Z,3.76
2022-12-15T05:25:44.822Z,3.78
2022-12-15T05:28:30.128Z,3.65
2022-12-15T05:31:16.987Z,3.64
2022-12-15T05:33:43.741Z,3.76
2022-12-15T05:36:10.293Z,3.82
2022-12-15T05:38:36.835Z,3.88
2022-12-15T05:41:03.701Z,3.90
2022-12-15T05:43:30.645Z,3.92
2022-12-15T05:46:03.016Z,3.90
2022-12-15T05:48:29.860Z,3.88
2022-12-15T05:50:56.485Z,3.85
2022-12-15T05:53:23.027Z,3.86
2022-12-15T05:55:49.607Z,3.64
2022-12-15T05:58:16.127Z,3.68
2022-12-15T06:00:42.819Z,3.73
2022-12-15T06:03:09.405Z,3.77
2022-12-15T06:05:36.016Z,3.83
2022-12-15T06:08:03.008Z,3.83
2022-12-15T06:10:29.729Z,3.83
2022-12-15T06:12:56.572Z,3.74
2022-12-15T06:15:23.166Z,3.80
2022-12-15T06:17:49.906Z,3.58
2022-12-15T06:20:16.640Z,3.74
2022-12-15T06:22:48.132Z,3.75
2022-12-15T06:25:17.667Z,3.79
2022-12-15T06:27:44.267Z,3.80
2022-12-15T06:30:11.419Z,3.83
2022-12-15T06:32:37.947Z,3.86
2022-12-15T06:35:04.854Z,3.79
2022-12-15T06:37:31.419Z,3.81
2022-12-15T06:39:58.000Z,3.82
2022-12-15T06:42:24.524Z,3.82
2022-12-15T06:44:51.058Z,3.80
2022-12-15T06:47:17.606Z,3.75
2022-12-15T06:49:44.278Z,3.75
2022-12-15T06:52:10.835Z,3.77
2022-12-15T06:54:37.390Z,3.83
2022-12-15T06:57:03.965Z,3.82
2022-12-15T06:59:30.927Z,3.86
2022-12-15T07:01:57.956Z,3.85
2022-12-15T07:04:24.841Z,3.87
2022-12-15T07:06:51.811Z,3.82
2022-12-15T07:09:18.468Z,3.71
2022-12-15T07:11:46.422Z,3.69
2022-12-15T07:14:12.986Z,3.75
2022-12-15T07:16:39.652Z,3.86
2022-12-15T07:19:06.299Z,3.93
2022-12-15T07:21:32.993Z,4.00
2022-12-15T07:24:00.771Z,4.01
2022-12-15T07:26:28.205Z,3.99
2022-12-15T07:28:54.835Z,4.02
2022-12-15T07:31:22.304Z,4.08
2022-12-15T07:33:49.206Z,4.08
2022-12-15T07:36:16.136Z,4.09
2022-12-15T07:38:42.795Z,4.04
2022-12-15T07:41:10.005Z,4.08
2022-12-15T07:43:37.608Z,4.17
2022-12-15T07:46:05.444Z,4.22
2022-12-15T07:48:32.971Z,4.30
2022-12-15T07:51:11.016Z,4.33
2022-12-15T07:53:42.147Z,4.24
2022-12-15T07:56:10.146Z,4.30
2022-12-15T07:58:38.395Z,4.40
2022-12-15T08:01:07.378Z,4.32
2022-12-15T08:03:36.144Z,4.19
2022-12-15T08:06:05.339Z,4.24
2022-12-15T08:08:33.170Z,4.53
2022-12-15T08:11:04.806Z,5.58
2022-12-15T08:14:01.543Z,6.31
2022-12-15T08:16:18.902Z,6.96
2022-12-15T08:18:45.598Z,7.48
2022-12-15T08:21:12.189Z,7.64
2022-12-15T08:23:40.219Z,8.28
2022-12-15T08:26:10.748Z,9.49
2022-12-15T08:28:38.899Z,10.55
2022-12-15T08:31:07.604Z,11.22
2022-12-15T08:33:35.020Z,11.82
2022-12-15T08:36:05.443Z,12.73
2022-12-15T08:38:33.285Z,13.23
2022-12-15T08:41:11.194Z,13.82
2022-12-15T08:43:45.549Z,14.17
2022-12-15T08:46:15.879Z,14.28
2022-12-15T08:48:42.987Z,14.58
2022-12-15T08:51:10.266Z,14.98
2022-12-15T08:53:36.922Z,15.29
2022-12-15T08:56:09.927Z,15.34
2022-12-15T08:58:36.745Z,15.77
2022-12-15T09:01:09.685Z,16.13
2022-12-15T09:03:37.658Z,16.37
2022-12-15T09:06:06.688Z,16.57
2022-12-15T09:08:34.099Z,16.21
2022-12-15T09:11:01.902Z,16.19
2022-12-15T09:13:29.246Z,16.29
2022-12-15T09:16:11.498Z,16.15
2022-12-15T09:18:44.024Z,16.59
2022-12-15T09:21:11.682Z,16.35
2022-12-15T09:23:38.594Z,16.61
2022-12-15T09:26:07.739Z,16.97
2022-12-15T09:28:35.486Z,16.71
2022-12-15T09:31:06.362Z,16.99
2022-12-15T09:33:33.844Z,17.18
2022-12-15T09:36:00.916Z,17.16
2022-12-15T09:38:27.466Z,16.80
2022-12-15T09:40:54.160Z,17.16
2022-12-15T09:43:46.164Z,17.69
2022-12-15T09:46:24.007Z,18.00
2022-12-15T09:48:52.346Z,18.24
2022-12-15T09:51:19.412Z,17.98
2022-12-15T09:53:55.590Z,18.48
2022-12-15T09:56:39.142Z,18.60
2022-12-15T09:59:19.278Z,18.14
2022-12-15T10:01:51.939Z,18.39
2022-12-15T10:04:45.858Z,18.19
2022-12-15T10:07:34.697Z,18.53
2022-12-15T10:10:29.830Z,18.33
2022-12-15T10:13:02.463Z,17.91
2022-12-15T10:15:37.933Z,17.47
2022-12-15T10:18:13.475Z,16.38
2022-12-15T10:20:40.284Z,16.54
2022-12-15T10:23:16.242Z,17.61
2022-12-15T10:25:51.553Z,17.43
2022-12-15T10:28:36.922Z,17.95
2022-12-15T10:31:29.887Z,18.00
2022-12-15T10:34:20.347Z,17.89
2022-12-15T10:36:51.187Z,17.34
2022-12-15T10:39:20.773Z,17.48
2022-12-15T10:42:26.314Z,16.48
2022-12-15T10:44:57.275Z,15.89
2022-12-15T10:47:29.978Z,16.19
2022-12-15T10:50:22.468Z,14.60
2022-12-15T10:52:51.847Z,15.20
2022-12-15T10:55:41.911Z,15.06
2022-12-15T10:58:20.621Z,13.89
2022-12-15T11:00:50.951Z,13.81
2022-12-15T11:03:26.728Z,12.99
2022-12-15T11:05:56.142Z,12.55
2022-12-15T11:08:24.747Z,12.58
2022-12-15T11:11:16.098Z,12.49
2022-12-15T11:13:43.757Z,12.98
2022-12-15T11:16:18.558Z,12.42
2022-12-15T11:18:52.996Z,12.50
2022-12-15T11:21:30.307Z,12.13
2022-12-15T11:24:12.184Z,12.29
2022-12-15T11:26:54.931Z,10.90
2022-12-15T11:29:30.685Z,11.46
2022-12-15T11:32:03.063Z,11.85
2022-12-15T11:34:37.634Z,11.91
2022-12-15T11:37:43.116Z,11.73
2022-12-15T11:40:40.124Z,11.46
2022-12-15T11:43:50.351Z,10.81
2022-12-15T11:46:30.159Z,10.73
2022-12-15T11:49:22.907Z,10.25
2022-12-15T11:52:10.896Z,9.99
2022-12-15T11:54:53.081Z,9.83
2022-12-15T11:57:28.834Z,10.54
2022-12-15T12:00:18.073Z,10.75
2022-12-15T12:03:08.554Z,10.67
2022-12-15T12:05:44.397Z,10.83
2022-12-15T12:08:25.511Z,11.00
2022-12-15T12:11:15.039Z,11.34
2022-12-15T12:13:54.186Z,11.03
2022-12-15T12:16:44.031Z,11.70
2022-12-15T12:19:16.573Z,12.19
2022-12-15T12:21:46.885Z,12.17
2022-12-15T12:24:30.798Z,12.34
2022-12-15T12:27:10.333Z,12.62
2022-12-15T12:29:51.376Z,12.02
2022-12-15T12:32:45.179Z,12.27
2022-12-15T12:35:32.210Z,12.23
2022-12-15T12:38:04.107Z,12.54
2022-12-15T12:40:41.876Z,12.46
2022-12-15T12:43:14.017Z,11.91
2022-12-15T12:45:52.103Z,12.29
2022-12-15T12:48:29.639Z,12.17
2022-12-15T12:51:19.447Z,11.70
2022-12-15T12:53:46.070Z,11.60
2022-12-15T12:56:39.913Z,12.18
2022-12-15T12:59:29.202Z,11.85
2022-12-15T13:01:57.256Z,11.69
2022-12-15T13:04:29.899Z,12.08
2022-12-15T13:07:01.910Z,11.65
2022-12-15T13:09:39.656Z,11.64
2022-12-15T13:12:50.873Z,12.25
2022-12-15T13:15:27.209Z,11.99
2022-12-15T13:18:16.415Z,12.49
2022-12-15T13:20:45.310Z,12.85
2022-12-15T13:23:16.509Z,12.56
2022-12-15T13:25:48.590Z,12.60
2022-12-15T13:28:39.153Z,12.63
2022-12-15T13:31:18.596Z,12.17
2022-12-15T13:33:59.368Z,12.15
2022-12-15T13:36:38.191Z,11.97
2022-12-15T13:39:30.512Z,12.38
2022-12-15T13:44:58.137Z,11.97
2022-12-15T13:47:28.454Z,12.34
2022-12-15T13:50:15.618Z,12.08
2022-12-15T13:53:17.760Z,11.87
2022-12-15T13:55:46.548Z,11.51
2022-12-15T13:58:19.571Z,12.07
2022-12-15T14:00:54.011Z,11.97
2022-12-15T14:03:21.416Z,11.79
2022-12-15T14:05:52.047Z,11.83
2022-12-15T14:08:21.680Z,11.80
2022-12-15T14:10:53.666Z,12.04
2022-12-15T14:13:26.812Z,11.98
2022-12-15T14:15:55.533Z,12.39
2022-12-15T14:18:23.349Z,11.69
2022-12-15T14:20:50.246Z,11.91
2022-12-15T14:23:19.884Z,12.32
2022-12-15T14:26:06.651Z,12.50
2022-12-15T14:28:36.718Z,12.41
2022-12-15T14:31:12.674Z,11.95
2022-12-15T14:33:43.792Z,11.29
2022-12-15T14:36:12.565Z,11.43
2022-12-15T14:38:45.020Z,11.60
2022-12-15T14:41:22.381Z,11.42
2022-12-15T14:44:36.681Z,11.33
2022-12-15T14:46:37.373Z,10.79
2022-12-15T14:49:07.331Z,10.56
2022-12-15T14:51:44.298Z,10.83
2022-12-15T14:54:30.011Z,10.76
2022-12-15T14:57:16.063Z,10.66
2022-12-15T14:59:45.491Z,10.91
2022-12-15T15:02:23.177Z,11.00
2022-12-15T15:05:03.553Z,10.02
2022-12-15T15:07:32.679Z,10.42
2022-12-15T15:10:00.858Z,10.29
2022-12-15T15:12:48.759Z,10.29
2022-12-15T15:15:20.706Z,10.71
2022-12-15T15:17:53.842Z,10.86
2022-12-15T15:20:29.173Z,10.93
2022-12-15T15:23:08.189Z,10.76
2022-12-15T15:25:50.031Z,10.84
2022-12-15T15:28:19.566Z,10.90
2022-12-15T15:30:48.603Z,10.80
2022-12-15T15:33:16.441Z,10.44
2022-12-15T15:35:44.991Z,10.50
2022-12-15T15:38:18.836Z,10.30
2022-12-15T15:40:54.662Z,10.30
2022-12-15T15:43:23.050Z,10.29
2022-12-15T15:46:00.867Z,10.14
2022-12-15T15:48:32.699Z,10.02
2022-12-15T15:51:01.055Z,10.21
2022-12-15T15:53:31.651Z,10.32
2022-12-15T15:55:59.396Z,10.15
2022-12-15T15:58:26.284Z,10.26
2022-12-15T16:00:53.571Z,10.20
2022-12-15T16:03:20.426Z,10.29
2022-12-15T16:05:47.330Z,10.28
2022-12-15T16:08:17.954Z,10.35
2022-12-15T16:10:47.440Z,10.29
2022-12-15T16:13:20.796Z,10.07
2022-12-15T16:15:50.826Z,10.08
2022-12-15T16:18:17.789Z,10.09
2022-12-15T16:20:47.661Z,9.67
2022-12-15T16:23:27.187Z,9.52
2022-12-15T16:25:57.542Z,9.15
2022-12-15T16:28:28.463Z,9.28
2022-12-15T16:30:56.155Z,9.20
2022-12-15T16:33:22.750Z,8.66
2022-12-15T16:35:50.525Z,9.21
2022-12-15T16:38:26.069Z,9.35
2022-12-15T16:40:55.507Z,9.22
2022-12-15T16:43:32.904Z,9.44
2022-12-15T16:46:04.095Z,8.99
2022-12-15T16:48:31.049Z,8.64
2022-12-15T16:50:59.641Z,8.73
2022-12-15T16:53:31.851Z,8.56
2022-12-15T16:56:00.222Z,8.85
2022-12-15T16:58:28.687Z,9.17
2022-12-15T17:00:56.319Z,8.97
2022-12-15T17:03:26.655Z,9.14
2022-12-15T17:05:59.395Z,9.29
2022-12-15T17:08:33.276Z,9.01
2022-12-15T17:11:00.663Z,9.28
2022-12-15T17:13:40.612Z,9.45
2022-12-15T17:16:14.482Z,9.45
2022-12-15T17:18:42.739Z,9.47
2022-12-15T17:21:14.378Z,9.33
2022-12-15T17:23:44.601Z,9.29
2022-12-15T17:26:27.548Z,9.12
2022-12-15T17:28:58.984Z,9.26
2022-12-15T17:31:30.321Z,9.27
2022-12-15T17:34:05.279Z,9.30
2022-12-15T17:36:32.141Z,9.20
2022-12-15T17:39:00.976Z,9.26
2022-12-15T17:41:58.182Z,9.05
2022-12-15T17:44:40.766Z,9.14
2022-12-15T17:47:08.829Z,9.15
2022-12-15T17:49:38.576Z,9.10
2022-12-15T17:52:11.435Z,8.71
2022-12-15T17:54:38.085Z,8.70
2022-12-15T17:57:04.638Z,8.74
2022-12-15T17:59:32.196Z,8.78
2022-12-15T18:01:58.854Z,8.81
2022-12-15T18:04:25.516Z,8.74
2022-12-15T18:06:58.111Z,8.78
2022-12-15T18:09:51.172Z,8.86
2022-12-15T18:12:23.677Z,8.63
2022-12-15T18:14:50.662Z,8.32
2022-12-15T18:17:17.533Z,8.24
2022-12-15T18:19:45.002Z,8.08
2022-12-15T18:22:22.890Z,8.18
2022-12-15T18:24:51.646Z,8.21
2022-12-15T18:27:22.562Z,7.74
2022-12-15T18:29:50.376Z,7.82
2022-12-15T18:32:17.943Z,7.71
2022-12-15T18:34:45.376Z,7.87
2022-12-15T18:37:16.392Z,7.32
2022-12-15T18:39:43.789Z,7.52
2022-12-15T18:42:19.090Z,7.51
2022-12-15T18:44:47.887Z,7.30
2022-12-15T18:47:16.811Z,7.14
2022-12-15T18:49:43.715Z,7.08
2022-12-15T18:52:21.793Z,7.14
2022-12-15T18:54:49.650Z,6.84
2022-12-15T18:57:29.090Z,6.53
2022-12-15T19:00:07.804Z,6.82
2022-12-15T19:02:34.521Z,7.08
2022-12-15T19:05:01.290Z,7.22
2022-12-15T19:07:27.856Z,7.32
2022-12-15T19:09:55.106Z,7.66
2022-12-15T19:12:21.798Z,7.89
2022-12-15T19:14:50.903Z,7.94
2022-12-15T19:17:38.783Z,7.68
2022-12-15T19:20:35.319Z,7.84
2022-12-15T19:23:02.088Z,7.43
2022-12-15T19:25:29.672Z,6.77
2022-12-15T19:27:59.840Z,6.23
2022-12-15T19:30:41.753Z,6.20
2022-12-15T19:33:09.787Z,6.35
2022-12-15T19:35:37.646Z,6.38
2022-12-15T19:38:05.679Z,7.15
2022-12-15T19:40:36.474Z,7.25
2022-12-15T19:43:04.284Z,7.32
2022-12-15T19:45:32.343Z,7.00
2022-12-15T19:47:59.847Z,7.11
2022-12-15T19:50:35.966Z,7.34
2022-12-15T19:53:07.202Z,7.44
2022-12-15T19:55:36.354Z,7.74
2022-12-15T19:58:22.237Z,7.85
2022-12-15T20:00:54.568Z,7.88
2022-12-15T20:03:21.750Z,7.95
2022-12-15T20:05:50.841Z,8.01
2022-12-15T20:08:26.782Z,8.00
2022-12-15T20:10:55.310Z,7.66
2022-12-15T20:13:22.349Z,7.76
2022-12-15T20:15:49.296Z,7.83
2022-12-15T20:18:15.963Z,7.82
2022-12-15T20:20:45.597Z,7.79
2022-12-15T20:23:29.010Z,7.72
2022-12-15T20:25:56.712Z,7.70
2022-12-15T20:28:28.114Z,7.66
2022-12-15T20:30:56.501Z,7.62
2022-12-15T20:33:23.781Z,7.52
2022-12-15T20:35:51.301Z,7.45
2022-12-15T20:38:28.371Z,7.40
2022-12-15T20:40:55.947Z,7.33
2022-12-15T20:43:24.228Z,7.28
2022-12-15T20:46:05.304Z,7.22
2022-12-15T20:48:34.656Z,7.18
2022-12-15T20:51:07.412Z,7.11
2022-12-15T20:53:36.071Z,7.08
2022-12-15T20:56:03.149Z,7.02
2022-12-15T20:58:33.258Z,6.99
2022-12-15T21:01:00.349Z,6.93
2022-12-15T21:03:34.274Z,6.89
2022-12-15T21:06:01.778Z,6.88
2022-12-15T21:08:31.162Z,6.82
2022-12-15T21:11:07.367Z,6.82
2022-12-15T21:13:35.620Z,6.78
2022-12-15T21:16:02.606Z,6.76
2022-12-15T21:19:03.905Z,6.58
2022-12-15T21:21:31.051Z,6.40
2022-12-15T21:23:59.338Z,6.53
2022-12-15T21:26:26.382Z,6.47
2022-12-15T21:28:59.573Z,6.48
2022-12-15T21:31:26.553Z,6.49
2022-12-15T21:33:53.268Z,6.46
2022-12-15T21:36:21.867Z,6.54
2022-12-15T21:38:51.821Z,6.36
2022-12-15T21:41:21.968Z,6.38
2022-12-15T21:43:49.328Z,6.40
2022-12-15T21:46:20.569Z,6.17
2022-12-15T21:49:08.509Z,6.25
2022-12-15T21:51:37.879Z,5.39
2022-12-15T21:54:06.386Z,5.01
2022-12-15T21:56:32.939Z,4.86
2022-12-15T21:58:59.606Z,4.96
2022-12-15T22:01:30.876Z,5.25
2022-12-15T22:04:01.125Z,5.26
2022-12-15T22:06:29.721Z,5.81
2022-12-15T22:09:00.877Z,5.96
2022-12-15T22:11:30.041Z,5.80
2022-12-15T22:13:58.928Z,5.92
2022-12-15T22:16:25.763Z,5.46
2022-12-15T22:18:55.779Z,5.23
2022-12-15T22:21:24.789Z,5.64
2022-12-15T22:23:52.162Z,5.99
2022-12-15T22:26:28.647Z,6.31
2022-12-15T22:28:56.918Z,6.37
2022-12-15T22:31:23.468Z,6.40
2022-12-15T22:33:50.063Z,6.40
2022-12-15T22:36:17.558Z,6.46
2022-12-15T22:38:44.933Z,6.46
2022-12-15T22:41:20.649Z,6.30
2022-12-15T22:43:52.660Z,6.43
2022-12-15T22:46:22.445Z,6.42
2022-12-15T22:48:51.971Z,6.22
2022-12-15T22:51:19.507Z,6.16
2022-12-15T22:53:46.573Z,6.40
2022-12-15T22:56:25.867Z,6.53
2022-12-15T22:59:02.607Z,6.69
2022-12-15T23:01:30.173Z,6.65
2022-12-15T23:03:56.973Z,6.67
2022-12-15T23:06:23.999Z,6.71
2022-12-15T23:08:55.612Z,6.71
2022-12-15T23:11:38.748Z,6.71
2022-12-15T23:14:13.345Z,6.45
2022-12-15T23:16:40.453Z,6.33
2022-12-15T23:19:08.397Z,6.24
2022-12-15T23:21:35.836Z,6.16
2022-12-15T23:24:02.410Z,6.11
2022-12-15T23:26:29.218Z,6.05
2022-12-15T23:28:55.861Z,5.95
2022-12-15T23:31:23.036Z,5.92
2022-12-15T23:33:50.083Z,5.90
2022-12-15T23:36:18.868Z,5.85
2022-12-15T23:38:45.434Z,5.79
2022-12-15T23:41:15.885Z,5.78
2022-12-15T23:43:42.811Z,5.71
2022-12-15T23:46:09.968Z,5.62
2022-12-15T23:48:42.231Z,5.60
2022-12-15T23:51:17.729Z,5.59
2022-12-15T23:53:46.375Z,5.52
2022-12-15T23:56:16.331Z,5.48
2022-12-15T23:58:45.616Z,5.26
